createdAt,value
2019-01-25T00:00:24.309Z,92.20
2019-01-25T00:02:52.644Z,92.20
2019-01-25T00:05:20.933Z,92.10
2019-01-25T00:07:49.214Z,92.10
2019-01-25T00:10:17.498Z,92.10
2019-01-25T00:12:45.914Z,92.10
2019-01-25T00:15:14.216Z,92.10
2019-01-25T00:17:42.563Z,92.10
2019-01-25T00:20:12.738Z,92.00
2019-01-25T00:22:41.050Z,92.00
2019-01-25T00:25:09.476Z,91.90
2019-01-25T00:27:37.818Z,91.90
2019-01-25T00:30:09.378Z,91.90
2019-01-25T00:32:37.646Z,91.70
2019-01-25T00:35:06.963Z,92.10
2019-01-25T00:37:35.244Z,91.70
2019-01-25T00:40:06.236Z,91.80
2019-01-25T00:42:35.042Z,91.80
2019-01-25T00:45:03.488Z,91.70
2019-01-25T00:47:31.766Z,91.60
2019-01-25T00:50:00.123Z,91.70
2019-01-25T00:52:28.637Z,91.80
2019-01-25T00:54:56.910Z,91.90
2019-01-25T00:57:25.184Z,92.00
2019-01-25T01:00:20.062Z,92.20
2019-01-25T01:02:48.518Z,92.50
2019-01-25T01:05:17.663Z,93.00
2019-01-25T01:07:46.710Z,93.50
2019-01-25T01:10:15.001Z,94.00
2019-01-25T01:12:43.377Z,94.30
2019-01-25T01:15:23.817Z,94.90
2019-01-25T01:17:52.214Z,95.50
2019-01-25T01:20:21.067Z,96.00
2019-01-25T01:22:49.878Z,96.80
2019-01-25T01:25:18.494Z,96.90
2019-01-25T01:27:47.042Z,97.40
2019-01-25T01:30:22.666Z,97.40
2019-01-25T01:32:51.308Z,97.40
2019-01-25T01:35:19.585Z,97.60
2019-01-25T01:37:48.409Z,97.90
2019-01-25T01:40:21.993Z,98.40
2019-01-25T01:42:48.786Z,98.40
2019-01-25T01:45:36.514Z,98.40
2019-01-25T01:48:04.891Z,98.40
2019-01-25T01:50:33.295Z,98.40
2019-01-25T01:53:01.630Z,98.40
2019-01-25T01:55:29.909Z,98.40
2019-01-25T01:57:58.196Z,98.80
2019-01-25T02:00:26.511Z,98.80
2019-01-25T02:02:54.783Z,99.10
2019-01-25T02:05:23.103Z,99.10
2019-01-25T02:07:51.388Z,99.00
2019-01-25T02:10:29.035Z,99.00
2019-01-25T02:12:52.207Z,99.00
2019-01-25T02:15:22.115Z,99.00
2019-01-25T02:17:50.654Z,99.40
2019-01-25T02:20:24.286Z,99.00
2019-01-25T02:22:52.571Z,98.90
2019-01-25T02:25:20.846Z,98.90
2019-01-25T02:27:49.117Z,99.00
2019-01-25T02:30:23.140Z,98.90
2019-01-25T02:32:51.477Z,98.80
2019-01-25T02:35:19.757Z,98.80
2019-01-25T02:37:48.062Z,98.80
2019-01-25T02:40:19.596Z,98.90
2019-01-25T02:42:47.870Z,98.80
2019-01-25T02:45:16.183Z,98.80
2019-01-25T02:47:44.464Z,98.90
2019-01-25T02:50:16.082Z,98.90
2019-01-25T02:52:44.422Z,98.90
2019-01-25T02:55:13.897Z,98.90
2019-01-25T02:57:42.188Z,98.80
2019-01-25T03:00:15.925Z,98.90
2019-01-25T03:02:44.210Z,98.90
2019-01-25T03:05:14.764Z,98.70
2019-01-25T03:07:43.048Z,98.80
2019-01-25T03:10:14.026Z,98.80
2019-01-25T03:12:42.324Z,98.70
2019-01-25T03:15:17.572Z,98.80
2019-01-25T03:17:46.179Z,98.70
2019-01-25T03:20:15.787Z,98.80
2019-01-25T03:22:44.057Z,98.60
2019-01-25T03:25:21.172Z,98.80
2019-01-25T03:27:49.459Z,98.90
2019-01-25T03:30:22.835Z,98.90
2019-01-25T03:32:51.184Z,99.10
2019-01-25T03:35:21.493Z,99.00
2019-01-25T03:37:49.761Z,99.10
2019-01-25T03:40:20.083Z,99.10
2019-01-25T03:42:48.439Z,99.20
2019-01-25T03:45:17.217Z,99.20
2019-01-25T03:47:45.488Z,99.20
2019-01-25T03:50:16.657Z,99.30
2019-01-25T03:52:44.959Z,99.20
2019-01-25T03:55:14.667Z,99.20
2019-01-25T03:57:42.938Z,99.20
2019-01-25T04:00:19.377Z,99.30
2019-01-25T04:02:47.655Z,99.20
2019-01-25T04:05:17.085Z,99.20
2019-01-25T04:07:45.726Z,99.20
2019-01-25T04:10:17.259Z,99.40
2019-01-25T04:12:45.543Z,99.20
2019-01-25T04:15:19.261Z,99.20
2019-01-25T04:17:47.659Z,99.30
2019-01-25T04:20:17.877Z,99.40
2019-01-25T04:22:46.159Z,99.40
2019-01-25T04:25:19.160Z,99.50
2019-01-25T04:27:47.467Z,99.50
2019-01-25T04:30:18.374Z,99.70
2019-01-25T04:32:46.659Z,99.80
2019-01-25T04:35:15.192Z,99.90
2019-01-25T04:37:43.480Z,99.70
2019-01-25T04:40:14.097Z,99.70
2019-01-25T04:42:42.507Z,99.60
2019-01-25T04:45:13.003Z,99.60
2019-01-25T04:47:41.346Z,99.70
2019-01-25T04:50:14.938Z,99.50
2019-01-25T04:52:43.325Z,99.50
2019-01-25T04:55:17.614Z,99.40
2019-01-25T04:57:53.477Z,99.40
2019-01-25T05:00:23.283Z,99.40
2019-01-25T05:02:54.105Z,99.50
2019-01-25T05:05:22.368Z,99.50
2019-01-25T05:07:50.649Z,99.50
2019-01-25T05:10:19.069Z,99.50
2019-01-25T05:12:52.992Z,99.50
2019-01-25T05:15:21.756Z,99.50
2019-01-25T05:17:54.765Z,99.60
2019-01-25T05:20:23.045Z,99.70
2019-01-25T05:22:56.657Z,99.80
2019-01-25T05:25:26.375Z,99.80
2019-01-25T05:27:54.765Z,99.90
2019-01-25T05:30:24.425Z,99.90
2019-01-25T05:32:52.769Z,99.90
2019-01-25T05:35:21.052Z,99.90
2019-01-25T05:37:49.326Z,99.90
2019-01-25T05:40:23.895Z,99.90
2019-01-25T05:42:52.176Z,99.90
2019-01-25T05:45:20.445Z,99.90
2019-01-25T05:47:48.753Z,99.90
2019-01-25T05:50:18.161Z,99.90
2019-01-25T05:52:46.524Z,99.90
2019-01-25T05:55:27.335Z,99.90
2019-01-25T05:58:00.812Z,99.90
2019-01-25T06:00:33.725Z,99.90
2019-01-25T06:03:10.143Z,99.90
2019-01-25T06:05:38.495Z,99.80
2019-01-25T06:08:43.830Z,99.80
2019-01-25T06:11:08.009Z,99.80
2019-01-25T06:13:36.306Z,99.80
2019-01-25T06:16:04.920Z,99.70
2019-01-25T06:18:33.278Z,99.80
2019-01-25T06:21:01.598Z,99.80
2019-01-25T06:23:29.933Z,99.80
2019-01-25T06:25:59.354Z,99.60
2019-01-25T06:28:27.645Z,99.80
2019-01-25T06:30:55.926Z,99.80
2019-01-25T06:33:24.214Z,99.80
2019-01-25T06:35:52.581Z,99.70
2019-01-25T06:38:21.320Z,99.60
2019-01-25T06:40:49.604Z,99.80
2019-01-25T06:43:17.873Z,99.70
2019-01-25T06:45:46.150Z,99.50
2019-01-25T06:48:14.466Z,99.40
2019-01-25T06:50:42.728Z,99.10
2019-01-25T06:53:11.043Z,99.10
2019-01-25T06:55:39.343Z,99.10
2019-01-25T06:58:21.511Z,99.10
2019-01-25T07:00:57.103Z,99.10
2019-01-25T07:03:25.378Z,99.10
2019-01-25T07:05:53.694Z,99.20
2019-01-25T07:08:21.983Z,99.00
2019-01-25T07:10:50.253Z,99.20
2019-01-25T07:13:18.575Z,99.20
2019-01-25T07:15:46.869Z,99.10
2019-01-25T07:18:15.158Z,99.30
2019-01-25T07:20:43.478Z,99.30
2019-01-25T07:23:11.756Z,99.30
2019-01-25T07:25:40.055Z,99.20
2019-01-25T07:28:08.345Z,99.20
2019-01-25T07:30:36.632Z,99.10
2019-01-25T07:33:04.975Z,99.10
2019-01-25T07:35:33.373Z,99.10
2019-01-25T07:38:01.709Z,99.00
2019-01-25T07:40:30.435Z,98.80
2019-01-25T07:42:58.807Z,98.80
2019-01-25T07:45:27.160Z,98.80
2019-01-25T07:47:55.443Z,98.60
2019-01-25T07:50:23.729Z,98.60
2019-01-25T07:52:52.204Z,98.60
2019-01-25T07:55:20.554Z,98.50
2019-01-25T07:57:49.129Z,98.50
2019-01-25T08:00:20.243Z,98.50
2019-01-25T08:02:48.547Z,98.40
2019-01-25T08:05:16.858Z,98.30
2019-01-25T08:07:45.273Z,97.90
2019-01-25T08:10:23.327Z,97.80
2019-01-25T08:12:51.606Z,97.70
2019-01-25T08:15:25.609Z,97.70
2019-01-25T08:17:54.018Z,97.70
2019-01-25T08:20:22.409Z,97.50
2019-01-25T08:22:50.714Z,97.30
2019-01-25T08:25:19.212Z,97.00
2019-01-25T08:27:47.814Z,97.00
2019-01-25T08:30:19.497Z,97.10
2019-01-25T08:32:47.811Z,96.80
2019-01-25T08:35:16.220Z,96.80
2019-01-25T08:37:44.500Z,96.90
2019-01-25T08:40:32.288Z,96.60
2019-01-25T08:43:00.626Z,96.60
2019-01-25T08:45:28.993Z,96.70
2019-01-25T08:47:57.347Z,96.60
2019-01-25T08:50:27.148Z,96.60
2019-01-25T08:52:55.515Z,96.50
2019-01-25T08:55:23.881Z,96.50
2019-01-25T08:57:52.276Z,96.40
2019-01-25T09:00:23.234Z,96.30
2019-01-25T09:02:51.855Z,96.30
2019-01-25T09:05:20.322Z,96.80
2019-01-25T09:07:48.609Z,96.30
2019-01-25T09:10:21.927Z,96.40
2019-01-25T09:12:50.230Z,96.10
2019-01-25T09:15:22.649Z,96.10
2019-01-25T09:17:51.262Z,96.10
2019-01-25T09:20:21.583Z,96.10
2019-01-25T09:22:49.869Z,96.10
2019-01-25T09:25:18.185Z,96.10
2019-01-25T09:27:47.599Z,96.00
2019-01-25T09:30:18.773Z,95.70
2019-01-25T09:32:47.488Z,95.60
2019-01-25T09:35:16.114Z,95.30
2019-01-25T09:37:44.471Z,95.10
2019-01-25T09:40:22.817Z,94.80
2019-01-25T09:42:51.751Z,94.80
2019-01-25T09:45:20.361Z,94.80
2019-01-25T09:47:48.652Z,94.80
2019-01-25T09:50:18.998Z,94.80
2019-01-25T09:52:47.274Z,94.70
2019-01-25T09:55:24.407Z,94.60
2019-01-25T09:58:08.478Z,94.40
2019-01-25T10:00:40.039Z,94.30
2019-01-25T10:03:08.646Z,94.00
2019-01-25T10:05:36.926Z,94.00
2019-01-25T10:08:05.283Z,93.90
2019-01-25T10:10:33.646Z,93.70
2019-01-25T10:13:01.931Z,93.80
2019-01-25T10:15:31.050Z,93.70
2019-01-25T10:17:59.386Z,93.70
2019-01-25T10:20:27.845Z,93.80
2019-01-25T10:22:56.145Z,93.80
2019-01-25T10:25:24.494Z,93.90
2019-01-25T10:27:52.798Z,93.80
2019-01-25T10:30:48.772Z,93.80
2019-01-25T10:33:17.048Z,93.80
2019-01-25T10:35:45.335Z,93.90
2019-01-25T10:38:13.613Z,93.90
2019-01-25T10:40:41.903Z,93.80
2019-01-25T10:43:10.169Z,93.70
2019-01-25T10:45:43.317Z,93.60
2019-01-25T10:48:11.590Z,93.50
2019-01-25T10:50:39.867Z,93.40
2019-01-25T10:53:08.734Z,93.40
2019-01-25T10:55:37.013Z,93.30
2019-01-25T10:58:06.052Z,93.40
2019-01-25T11:00:34.337Z,92.90
2019-01-25T11:03:02.621Z,92.70
2019-01-25T11:05:30.893Z,92.60
2019-01-25T11:07:59.183Z,92.40
2019-01-25T11:10:27.535Z,92.50
2019-01-25T11:13:00.765Z,92.50
2019-01-25T11:15:26.299Z,92.40
2019-01-25T11:17:54.645Z,92.30
2019-01-25T11:20:24.686Z,92.00
2019-01-25T11:22:53.393Z,91.90
2019-01-25T11:25:24.991Z,92.00
2019-01-25T11:27:53.294Z,91.90
2019-01-25T11:30:21.582Z,92.10
2019-01-25T11:32:49.851Z,92.10
2019-01-25T11:35:18.139Z,92.10
2019-01-25T11:37:46.496Z,92.00
2019-01-25T11:40:23.314Z,92.10
2019-01-25T11:42:51.594Z,92.00
2019-01-25T11:45:19.940Z,92.00
2019-01-25T11:47:48.302Z,92.20
2019-01-25T11:50:21.139Z,92.30
2019-01-25T11:52:49.448Z,92.20
2019-01-25T11:55:19.065Z,92.20
2019-01-25T11:57:47.348Z,92.30
2019-01-25T12:00:23.833Z,92.50
2019-01-25T12:02:52.190Z,92.80
2019-01-25T12:05:23.171Z,92.80
2019-01-25T12:07:52.106Z,92.50
2019-01-25T12:10:23.185Z,92.70
2019-01-25T12:12:51.523Z,92.80
2019-01-25T12:15:19.811Z,92.80
2019-01-25T12:17:48.099Z,92.80
2019-01-25T12:20:19.838Z,92.70
2019-01-25T12:22:48.123Z,92.70
2019-01-25T12:25:16.477Z,92.60
2019-01-25T12:27:45.093Z,92.80
2019-01-25T12:30:38.145Z,92.80
2019-01-25T12:33:07.896Z,92.80
2019-01-25T12:35:38.380Z,92.90
2019-01-25T12:38:06.655Z,92.60
2019-01-25T12:40:34.939Z,92.50
2019-01-25T12:43:03.226Z,92.40
2019-01-25T12:45:32.174Z,92.20
2019-01-25T12:48:00.611Z,92.20
2019-01-25T12:50:49.011Z,92.10
2019-01-25T12:53:17.064Z,91.80
2019-01-25T12:55:45.426Z,91.90
2019-01-25T12:58:13.733Z,91.80
2019-01-25T13:00:42.074Z,91.50
2019-01-25T13:03:10.886Z,91.70
2019-01-25T13:05:39.400Z,91.90
2019-01-25T13:08:07.681Z,91.80
2019-01-25T13:10:36.038Z,91.80
2019-01-25T13:13:04.384Z,91.80
2019-01-25T13:15:32.668Z,91.90
2019-01-25T13:18:00.993Z,91.90
2019-01-25T13:20:30.710Z,92.10
2019-01-25T13:22:58.986Z,92.00
2019-01-25T13:25:27.366Z,92.50
2019-01-25T13:27:55.715Z,92.10
2019-01-25T13:30:31.607Z,92.40
2019-01-25T13:32:59.957Z,92.50
2019-01-25T13:35:28.321Z,92.50
2019-01-25T13:37:56.705Z,92.70
2019-01-25T13:40:26.521Z,92.70
2019-01-25T13:42:54.801Z,92.70
2019-01-25T13:45:23.565Z,92.40
2019-01-25T13:47:51.845Z,92.70
2019-01-25T13:50:28.747Z,92.90
2019-01-25T13:52:57.090Z,93.10
2019-01-25T13:55:25.454Z,93.40
2019-01-25T13:57:53.735Z,93.60
2019-01-25T14:00:30.155Z,93.90
2019-01-25T14:02:58.434Z,94.10
2019-01-25T14:05:26.790Z,94.30
2019-01-25T14:07:55.414Z,94.20
2019-01-25T14:10:26.120Z,94.00
2019-01-25T14:12:54.406Z,94.40
2019-01-25T14:15:22.734Z,94.50
2019-01-25T14:17:51.012Z,95.00
2019-01-25T14:20:28.314Z,94.80
2019-01-25T14:22:56.601Z,94.60
2019-01-25T14:25:25.776Z,94.60
2019-01-25T14:27:54.155Z,94.60
2019-01-25T14:30:25.691Z,94.60
2019-01-25T14:33:13.494Z,94.60
2019-01-25T14:35:43.279Z,94.60
2019-01-25T14:38:13.003Z,95.00
2019-01-25T14:40:41.311Z,95.00
2019-01-25T14:43:09.593Z,95.00
2019-01-25T14:45:37.861Z,95.30
2019-01-25T14:48:06.223Z,95.50
2019-01-25T14:50:34.500Z,95.70
2019-01-25T14:53:02.853Z,95.70
2019-01-25T14:55:31.158Z,95.60
2019-01-25T14:57:59.441Z,95.60
2019-01-25T15:00:27.723Z,95.60
2019-01-25T15:02:56.018Z,95.60
2019-01-25T15:05:24.313Z,95.60
2019-01-25T15:07:52.577Z,95.60
2019-01-25T15:10:23.193Z,95.60
2019-01-25T15:12:52.224Z,95.70
2019-01-25T15:15:20.535Z,95.70
2019-01-25T15:17:48.819Z,95.80
2019-01-25T15:20:22.942Z,95.70
2019-01-25T15:22:51.307Z,95.80
2019-01-25T15:25:19.588Z,95.70
2019-01-25T15:27:47.903Z,95.70
2019-01-25T15:30:21.892Z,95.80
2019-01-25T15:32:50.233Z,95.90
2019-01-25T15:35:20.527Z,95.90
2019-01-25T15:37:48.803Z,95.90
2019-01-25T15:40:19.143Z,95.90
2019-01-25T15:42:47.424Z,95.90
2019-01-25T15:45:19.955Z,95.90
2019-01-25T15:47:48.322Z,95.90
2019-01-25T15:50:19.927Z,95.80
2019-01-25T15:52:48.291Z,95.80
2019-01-25T15:55:16.560Z,95.90
2019-01-25T15:57:44.881Z,95.70
2019-01-25T16:00:18.109Z,95.50
2019-01-25T16:02:46.385Z,95.60
2019-01-25T16:05:16.728Z,95.60
2019-01-25T16:07:45.069Z,95.80
2019-01-25T16:10:18.385Z,95.80
2019-01-25T16:12:47.213Z,95.70
2019-01-25T16:15:17.624Z,95.60
2019-01-25T16:17:54.693Z,95.80
2019-01-25T16:20:23.310Z,95.80
2019-01-25T16:22:53.919Z,95.80
2019-01-25T16:25:25.337Z,95.80
2019-01-25T16:27:53.630Z,95.80
2019-01-25T16:30:24.554Z,95.80
2019-01-25T16:32:52.851Z,95.80
2019-01-25T16:35:21.235Z,96.00
2019-01-25T16:37:49.498Z,96.00
2019-01-25T16:40:23.565Z,95.90
2019-01-25T16:42:51.937Z,96.10
2019-01-25T16:45:25.895Z,96.10
2019-01-25T16:47:54.254Z,96.20
2019-01-25T16:50:23.800Z,96.40
2019-01-25T16:52:52.435Z,96.30
2019-01-25T16:55:20.714Z,96.20
2019-01-25T16:57:48.989Z,96.40
2019-01-25T17:00:32.116Z,96.50
2019-01-25T17:03:00.462Z,96.60
2019-01-25T17:05:28.742Z,96.60
2019-01-25T17:07:57.022Z,96.60
2019-01-25T17:10:25.295Z,96.60
2019-01-25T17:12:53.604Z,96.60
2019-01-25T17:15:21.889Z,96.70
2019-01-25T17:17:50.228Z,96.70
2019-01-25T17:20:21.663Z,96.70
2019-01-25T17:22:50.017Z,96.70
2019-01-25T17:25:18.363Z,96.80
2019-01-25T17:27:46.717Z,96.80
2019-01-25T17:30:23.516Z,96.80
2019-01-25T17:32:53.039Z,97.10
2019-01-25T17:35:21.414Z,96.90
2019-01-25T17:37:49.703Z,96.90
2019-01-25T17:40:23.777Z,97.00
2019-01-25T17:42:52.491Z,96.90
2019-01-25T17:45:20.843Z,96.90
2019-01-25T17:47:49.128Z,96.90
2019-01-25T17:50:17.676Z,97.00
2019-01-25T17:52:45.949Z,97.10
2019-01-25T17:55:18.449Z,97.30
2019-01-25T17:57:46.728Z,97.40
2019-01-25T18:00:19.086Z,97.40
2019-01-25T18:02:47.468Z,97.50
2019-01-25T18:05:15.751Z,97.70
2019-01-25T18:07:44.317Z,97.70
2019-01-25T18:10:21.491Z,97.80
2019-01-25T18:12:49.782Z,97.70
2019-01-25T18:15:18.497Z,97.70
2019-01-25T18:17:46.893Z,97.80
2019-01-25T18:20:19.646Z,97.90
2019-01-25T18:22:47.918Z,97.80
2019-01-25T18:25:35.958Z,97.90
2019-01-25T18:28:10.488Z,97.80
2019-01-25T18:30:44.790Z,97.80
2019-01-25T18:33:13.418Z,97.90
2019-01-25T18:35:41.703Z,97.90
2019-01-25T18:38:09.978Z,97.90
2019-01-25T18:40:38.291Z,98.00
2019-01-25T18:43:06.661Z,97.90
2019-01-25T18:45:35.002Z,98.00
2019-01-25T18:48:03.280Z,98.00
2019-01-25T18:50:31.557Z,98.00
2019-01-25T18:52:59.916Z,98.10
2019-01-25T18:55:28.194Z,98.10
2019-01-25T18:57:56.470Z,98.20
2019-01-25T19:00:26.038Z,98.30
2019-01-25T19:02:54.516Z,98.30
2019-01-25T19:05:22.794Z,98.30
2019-01-25T19:07:51.080Z,98.50
2019-01-25T19:10:24.375Z,98.80
2019-01-25T19:12:52.721Z,98.50
2019-01-25T19:15:24.250Z,98.50
2019-01-25T19:17:52.530Z,98.50
2019-01-25T19:20:21.536Z,98.60
2019-01-25T19:22:50.175Z,98.70
2019-01-25T19:25:18.458Z,98.80
2019-01-25T19:27:46.843Z,98.90
2019-01-25T19:30:18.514Z,99.00
2019-01-25T19:32:46.791Z,99.00
2019-01-25T19:35:15.065Z,99.00
2019-01-25T19:37:43.351Z,99.20
2019-01-25T19:40:20.956Z,99.30
2019-01-25T19:42:49.237Z,99.20
2019-01-25T19:45:17.524Z,99.20
2019-01-25T19:47:45.815Z,99.30
2019-01-25T19:50:16.895Z,99.30
2019-01-25T19:52:45.366Z,99.30
2019-01-25T19:55:19.481Z,99.30
2019-01-25T19:57:47.757Z,99.30
2019-01-25T20:00:22.083Z,99.30
2019-01-25T20:02:50.365Z,99.30
2019-01-25T20:05:21.624Z,99.50
2019-01-25T20:07:49.913Z,99.50
2019-01-25T20:10:19.364Z,99.70
2019-01-25T20:12:47.933Z,99.90
2019-01-25T20:15:19.460Z,99.90
2019-01-25T20:17:48.057Z,99.90
2019-01-25T20:20:19.402Z,99.90
2019-01-25T20:22:47.679Z,99.90
2019-01-25T20:25:16.079Z,99.90
2019-01-25T20:27:44.477Z,99.90
2019-01-25T20:30:16.213Z,99.90
2019-01-25T20:32:44.494Z,99.90
2019-01-25T20:35:16.302Z,99.90
2019-01-25T20:37:44.591Z,99.90
2019-01-25T20:40:15.206Z,99.90
2019-01-25T20:42:43.891Z,99.90
2019-01-25T20:45:27.543Z,99.90
2019-01-25T20:47:56.208Z,99.90
2019-01-25T20:50:27.148Z,99.90
2019-01-25T20:52:55.519Z,99.90
2019-01-25T20:55:24.234Z,99.90
2019-01-25T20:57:52.570Z,99.90
2019-01-25T21:00:29.647Z,99.90
2019-01-25T21:02:57.982Z,99.90
2019-01-25T21:05:26.249Z,99.90
2019-01-25T21:07:54.534Z,99.90
2019-01-25T21:10:24.957Z,99.90
2019-01-25T21:12:53.900Z,99.90
2019-01-25T21:15:24.518Z,99.90
2019-01-25T21:17:53.156Z,99.90
2019-01-25T21:20:27.706Z,99.90
2019-01-25T21:22:56.059Z,99.90
2019-01-25T21:25:24.363Z,99.90
2019-01-25T21:27:53.123Z,99.90
2019-01-25T21:30:24.854Z,99.90
2019-01-25T21:32:53.411Z,99.90
2019-01-25T21:35:21.684Z,99.90
2019-01-25T21:37:50.417Z,99.90
2019-01-25T21:40:21.130Z,99.90
2019-01-25T21:42:49.492Z,99.90
2019-01-25T21:45:29.299Z,99.90
2019-01-25T21:47:57.634Z,99.90
2019-01-25T21:50:28.472Z,99.90
2019-01-25T21:52:56.831Z,99.90
2019-01-25T21:55:25.138Z,99.90
2019-01-25T21:57:53.413Z,99.90
2019-01-25T22:00:27.359Z,99.90
2019-01-25T22:02:55.642Z,99.90
2019-01-25T22:05:23.933Z,99.90
2019-01-25T22:07:52.493Z,99.90
2019-01-25T22:10:23.591Z,99.90
2019-01-25T22:12:51.971Z,99.90
2019-01-25T22:15:20.329Z,99.90
2019-01-25T22:17:49.012Z,99.90
2019-01-25T22:20:41.339Z,99.90
2019-01-25T22:23:09.986Z,99.90
2019-01-25T22:25:38.358Z,99.90
2019-01-25T22:28:06.655Z,99.90
2019-01-25T22:30:35.008Z,99.90
2019-01-25T22:33:03.363Z,99.90
2019-01-25T22:35:31.704Z,99.90
2019-01-25T22:37:59.979Z,99.90
2019-01-25T22:40:29.972Z,99.90
2019-01-25T22:42:58.576Z,99.90
2019-01-25T22:45:28.799Z,99.90
2019-01-25T22:47:58.130Z,99.90
2019-01-25T22:50:28.679Z,99.90
2019-01-25T22:52:57.027Z,99.90
2019-01-25T22:55:26.042Z,99.90
2019-01-25T22:57:54.430Z,99.90
2019-01-25T23:00:46.747Z,99.90
2019-01-25T23:03:17.896Z,99.90
2019-01-25T23:06:20.759Z,99.90
2019-01-25T23:08:49.055Z,99.90
2019-01-25T23:11:17.334Z,99.90
2019-01-25T23:13:45.632Z,99.90
2019-01-25T23:16:14.030Z,99.90
2019-01-25T23:18:42.309Z,99.90
2019-01-25T23:21:10.716Z,99.90
2019-01-25T23:23:38.997Z,99.90
2019-01-25T23:26:07.336Z,99.90
2019-01-25T23:28:35.632Z,99.90
2019-01-25T23:31:03.910Z,99.90
2019-01-25T23:33:32.185Z,99.90
2019-01-25T23:36:00.544Z,99.90
2019-01-25T23:38:29.220Z,99.90
2019-01-25T23:40:57.498Z,99.90
2019-01-25T23:43:25.782Z,99.90
2019-01-25T23:45:54.103Z,99.90
2019-01-25T23:48:22.766Z,99.90
2019-01-25T23:50:51.032Z,99.90
2019-01-25T23:53:19.321Z,99.90
2019-01-25T23:55:47.597Z,99.90
2019-01-25T23:58:15.876Z,99.90
